createdAt,value
2019-03-19T17:59:07.657Z,5.87
2019-03-19T18:00:16.101Z,6.70
2019-03-19T18:01:28.602Z,5.15
2019-03-19T18:02:33.591Z,6.10
2019-03-19T18:03:43.821Z,6.08
2019-03-19T18:05:09.330Z,6.80
2019-03-19T18:06:22.650Z,5.75
2019-03-19T18:07:42.228Z,6.92
2019-03-19T18:09:31.418Z,5.05
2019-03-19T18:10:56.554Z,5.85
2019-03-19T18:12:06.373Z,6.50
2019-03-19T18:13:53.350Z,7.50
2019-03-19T18:15:14.366Z,6.05
2019-03-19T18:16:23.863Z,5.40
2019-03-19T18:17:33.856Z,6.70
2019-03-19T18:19:15.690Z,5.20
2019-03-19T18:20:12.932Z,5.80
2019-03-19T18:21:18.371Z,6.17
2019-03-19T18:22:24.975Z,6.35
2019-03-19T18:23:34.714Z,5.95
2019-03-19T18:24:43.938Z,6.08
2019-03-19T18:25:59.093Z,6.05
2019-03-19T18:27:09.820Z,5.75
2019-03-19T18:28:15.284Z,6.20
2019-03-19T18:29:38.607Z,7.15
2019-03-19T18:30:53.143Z,6.20
2019-03-19T18:32:07.036Z,7.53
2019-03-19T18:35:31.583Z,6.55
2019-03-19T18:36:39.155Z,6.50
2019-03-19T18:38:10.706Z,6.83
2019-03-19T18:39:22.176Z,7.30
2019-03-19T18:40:55.344Z,6.40
2019-03-19T18:42:02.362Z,7.17
2019-03-19T18:43:13.772Z,6.67
2019-03-19T18:44:21.463Z,6.83
2019-03-19T18:45:45.642Z,7.08
2019-03-19T18:47:01.221Z,7.58
2019-03-19T18:48:15.729Z,6.97
2019-03-19T18:49:34.001Z,6.90
2019-03-19T18:50:40.392Z,7.92
2019-03-19T18:51:47.031Z,6.10
2019-03-19T18:53:39.417Z,6.75
2019-03-19T18:54:58.947Z,8.20
2019-03-19T19:01:15.293Z,7.17
2019-03-19T19:02:27.193Z,7.33
2019-03-19T19:03:48.803Z,8.45
2019-03-19T19:04:58.158Z,8.58
2019-03-19T19:06:13.358Z,8.65
2019-03-19T19:07:31.753Z,10.08
2019-03-19T19:09:08.214Z,12.55
2019-03-19T19:10:50.174Z,10.85
2019-03-19T19:12:27.818Z,13.78
2019-03-19T19:14:04.076Z,17.92
2019-03-19T19:15:25.638Z,19.32
2019-03-19T19:17:03.555Z,17.15
2019-03-19T19:19:01.061Z,14.18
2019-03-19T19:22:58.028Z,14.95
2019-03-19T19:24:32.076Z,16.12
2019-03-19T19:32:28.721Z,10.88
2019-03-19T19:33:38.918Z,11.08
2019-03-19T19:34:44.584Z,11.95
2019-03-19T19:42:25.437Z,12.35
2019-03-19T19:43:52.330Z,11.63
2019-03-19T19:45:16.787Z,12.55
2019-03-19T19:46:38.531Z,12.88
2019-03-19T19:48:34.779Z,14.55
2019-03-19T19:51:30.463Z,11.33
2019-03-19T19:57:31.711Z,9.98
2019-03-19T20:00:02.113Z,12.98
2019-03-19T20:00:20.919Z,11.95
2019-03-19T20:03:12.787Z,10.70
2019-03-19T20:04:43.821Z,11.55
2019-03-19T20:06:49.554Z,12.00
2019-03-19T20:09:45.859Z,12.23
2019-03-19T20:11:18.428Z,14.15
2019-03-19T20:12:43.428Z,15.53
2019-03-19T20:13:52.198Z,14.90
2019-03-19T20:15:18.631Z,16.07
2019-03-19T20:16:26.364Z,15.80
2019-03-19T20:17:57.205Z,15.90
2019-03-19T20:19:15.880Z,16.10
2019-03-19T20:20:28.798Z,12.33
2019-03-19T20:22:01.513Z,11.60
2019-03-19T20:23:09.080Z,10.78
2019-03-19T20:24:17.607Z,12.78
2019-03-19T20:26:14.844Z,17.42
2019-03-19T20:27:37.176Z,14.00
2019-03-19T20:29:15.383Z,13.22
2019-03-19T20:31:49.848Z,17.10
2019-03-19T20:33:24.859Z,16.90
2019-03-19T20:34:32.181Z,16.37
2019-03-19T20:35:58.333Z,16.90
2019-03-19T20:37:05.815Z,16.80
2019-03-19T20:38:21.479Z,17.90
2019-03-19T20:39:29.986Z,20.90
2019-03-19T20:40:39.703Z,21.25
2019-03-19T20:41:55.735Z,20.70
2019-03-19T20:43:25.494Z,18.98
2019-03-19T20:44:32.243Z,18.35
2019-03-19T20:45:46.269Z,16.93
2019-03-19T20:46:52.522Z,13.03
2019-03-19T20:47:59.600Z,11.45
2019-03-19T20:49:05.659Z,7.95
2019-03-19T20:50:23.784Z,9.08
2019-03-19T20:51:36.321Z,11.00
2019-03-19T20:52:50.566Z,8.58
2019-03-19T20:53:55.842Z,10.48
2019-03-19T20:55:09.424Z,12.07
2019-03-19T20:56:16.137Z,9.05
2019-03-19T20:57:31.054Z,10.28
2019-03-19T20:58:52.255Z,8.90
2019-03-19T21:00:06.581Z,10.25
2019-03-19T21:01:53.320Z,10.50
2019-03-19T21:03:05.569Z,10.32
2019-03-19T21:04:08.624Z,9.73
2019-03-19T21:05:20.538Z,9.13
2019-03-19T21:06:26.366Z,8.80
2019-03-19T21:07:31.817Z,9.13
2019-03-19T21:08:44.578Z,11.03
2019-03-19T21:09:54.265Z,10.15
2019-03-19T21:10:59.527Z,10.63
2019-03-19T21:12:05.253Z,9.88
2019-03-19T21:13:10.651Z,9.08
2019-03-19T21:14:16.157Z,10.23
2019-03-19T21:15:28.291Z,9.75
2019-03-19T21:16:34.157Z,12.20
2019-03-19T21:17:44.495Z,12.18
2019-03-19T21:18:52.103Z,12.75
2019-03-19T21:19:57.699Z,11.85
2019-03-19T21:21:07.395Z,11.90
2019-03-19T21:22:26.195Z,12.28
2019-03-19T21:24:00.370Z,11.43
2019-03-19T21:25:10.736Z,12.85
2019-03-19T21:26:17.196Z,12.35
2019-03-19T21:27:27.520Z,10.88
2019-03-19T21:28:32.790Z,11.73
2019-03-19T21:29:38.063Z,12.90
2019-03-19T21:30:46.251Z,12.98
2019-03-19T21:31:55.192Z,12.40
2019-03-19T21:33:01.219Z,11.90
2019-03-19T21:34:16.371Z,11.70
2019-03-19T21:35:25.354Z,10.48
2019-03-19T21:36:33.170Z,8.90
2019-03-19T21:37:40.198Z,10.63
2019-03-19T21:38:55.476Z,9.63
2019-03-19T21:40:06.231Z,10.15
2019-03-19T21:41:11.764Z,10.80
2019-03-19T21:42:18.443Z,10.95
2019-03-19T21:43:28.961Z,11.53
2019-03-19T21:44:34.881Z,10.55
2019-03-19T21:45:40.202Z,10.10
2019-03-19T21:46:50.194Z,10.93
2019-03-19T21:47:59.531Z,9.93
2019-03-19T21:49:14.770Z,8.18
2019-03-19T21:50:28.993Z,10.50
2019-03-19T21:51:37.211Z,10.20
2019-03-19T21:52:44.783Z,9.63
2019-03-19T21:53:51.315Z,10.78
2019-03-19T21:54:58.891Z,8.23
2019-03-19T21:56:07.366Z,9.68
2019-03-19T21:57:17.937Z,9.55
2019-03-19T21:58:24.393Z,7.85
2019-03-19T21:59:31.582Z,7.30
2019-03-19T22:00:37.750Z,8.50
2019-03-19T22:01:45.135Z,7.22
2019-03-19T22:02:51.292Z,8.10
2019-03-19T22:04:03.294Z,7.70
2019-03-19T22:05:12.281Z,9.13
2019-03-19T22:06:18.276Z,8.68
2019-03-19T22:07:34.752Z,8.25
2019-03-19T22:08:45.004Z,8.30
2019-03-19T22:09:55.026Z,7.72
2019-03-19T22:11:01.466Z,7.42
2019-03-19T22:12:08.694Z,7.97
2019-03-19T22:13:29.317Z,7.50
2019-03-19T22:14:35.023Z,7.62
2019-03-19T22:15:47.297Z,7.42
2019-03-19T22:16:54.653Z,7.53
2019-03-19T22:18:02.536Z,7.95
2019-03-19T22:19:13.734Z,9.25
2019-03-19T22:20:20.521Z,7.95
2019-03-19T22:21:40.365Z,10.70
2019-03-19T22:22:52.408Z,9.63
2019-03-19T22:24:04.334Z,9.45
2019-03-19T22:25:19.234Z,9.85
2019-03-19T22:26:26.053Z,8.65
2019-03-19T22:27:42.665Z,8.15
2019-03-19T22:28:41.350Z,9.08
2019-03-19T22:29:46.469Z,6.70
2019-03-19T22:30:53.873Z,7.50
2019-03-19T22:32:03.927Z,7.35
2019-03-19T22:33:13.739Z,6.60
2019-03-19T22:34:19.187Z,8.85
2019-03-19T22:35:30.153Z,7.20
2019-03-19T22:36:35.265Z,7.45
2019-03-19T22:37:40.430Z,8.03
2019-03-19T22:38:45.855Z,7.62
2019-03-19T22:39:52.254Z,8.28
2019-03-19T22:40:57.282Z,8.35
2019-03-19T22:42:06.184Z,8.25
2019-03-19T22:43:27.705Z,11.75
2019-03-19T22:44:46.814Z,8.98
2019-03-19T22:45:52.132Z,9.15
2019-03-19T22:46:59.338Z,9.93
2019-03-19T22:48:04.679Z,9.93
2019-03-19T22:49:10.169Z,9.35
2019-03-19T22:50:16.821Z,10.78
2019-03-19T22:51:26.871Z,12.90
2019-03-19T22:52:35.222Z,11.55
2019-03-19T22:53:46.220Z,12.63
2019-03-19T22:54:52.922Z,10.40
2019-03-19T22:55:58.492Z,11.30
2019-03-19T22:57:05.045Z,10.05
2019-03-19T22:58:10.385Z,10.58
2019-03-19T22:59:19.272Z,10.05
2019-03-19T23:00:59.974Z,10.85
2019-03-19T23:02:05.479Z,10.93
2019-03-19T23:03:10.706Z,10.03
2019-03-19T23:04:26.720Z,11.15
2019-03-19T23:05:22.859Z,9.83
2019-03-19T23:06:28.764Z,9.85
2019-03-19T23:07:34.198Z,10.38
2019-03-19T23:08:41.283Z,10.50
2019-03-19T23:09:48.935Z,10.63
2019-03-19T23:10:57.332Z,10.32
2019-03-19T23:12:04.087Z,10.13
2019-03-19T23:13:11.718Z,9.35
2019-03-19T23:14:16.301Z,12.18
2019-03-19T23:15:21.959Z,9.85
2019-03-19T23:16:27.463Z,8.73
2019-03-19T23:17:32.504Z,9.33
2019-03-19T23:18:37.542Z,10.05
2019-03-19T23:19:44.960Z,8.90
2019-03-19T23:20:50.136Z,8.85
2019-03-19T23:21:56.854Z,10.53
2019-03-19T23:23:02.376Z,11.65
2019-03-19T23:24:07.531Z,10.85
2019-03-19T23:25:12.590Z,9.98
2019-03-19T23:26:17.884Z,10.53
2019-03-19T23:27:26.729Z,10.00
2019-03-19T23:28:36.081Z,10.08
2019-03-19T23:29:40.892Z,11.63
2019-03-19T23:31:01.570Z,11.18
2019-03-19T23:32:08.768Z,10.58
2019-03-19T23:33:14.142Z,11.30
2019-03-19T23:34:20.175Z,11.33
2019-03-19T23:35:28.150Z,12.10
2019-03-19T23:36:34.956Z,12.10
2019-03-19T23:37:48.343Z,12.35
2019-03-19T23:40:31.853Z,13.10
2019-03-19T23:41:50.729Z,11.45
2019-03-19T23:43:10.998Z,11.00
2019-03-19T23:44:22.356Z,9.63
2019-03-19T23:45:28.775Z,11.53
2019-03-19T23:46:38.892Z,11.60
2019-03-19T23:47:44.125Z,11.12
2019-03-19T23:48:50.547Z,10.80
2019-03-19T23:49:55.880Z,10.28
2019-03-19T23:51:01.217Z,11.38
2019-03-19T23:52:07.627Z,9.98
2019-03-19T23:53:12.597Z,9.53
2019-03-19T23:54:18.575Z,8.65
2019-03-19T23:55:26.610Z,8.10
2019-03-19T23:56:35.370Z,8.43
2019-03-19T23:57:47.901Z,8.83
2019-03-19T23:58:56.442Z,7.97
